sensor_id;sensor_type;location;lat;lon;timestamp;P1;durP1;ratioP1;P2;durP2;ratioP2
5827;SDS011;42583;50.240;8.444;2023-12-29T00:04:49;4.03;;;2.70;;
5827;SDS011;42583;50.240;8.444;2023-12-29T00:19:49;4.25;;;3.30;;
5827;SDS011;42583;50.240;8.444;2023-12-29T00:34:50;4.07;;;2.83;;
5827;SDS011;42583;50.240;8.444;2023-12-29T00:49:50;5.13;;;3.22;;
5827;SDS011;42583;50.240;8.444;2023-12-29T01:04:51;5.28;;;2.60;;
5827;SDS011;42583;50.240;8.444;2023-12-29T01:19:52;6.07;;;3.90;;
5827;SDS011;42583;50.240;8.444;2023-12-29T01:34:52;4.90;;;2.95;;
5827;SDS011;42583;50.240;8.444;2023-12-29T01:49:53;4.28;;;2.17;;
5827;SDS011;42583;50.240;8.444;2023-12-29T02:04:53;4.10;;;2.17;;
5827;SDS011;42583;50.240;8.444;2023-12-29T02:19:54;3.70;;;2.10;;
5827;SDS011;42583;50.240;8.444;2023-12-29T02:34:55;4.07;;;2.30;;
5827;SDS011;42583;50.240;8.444;2023-12-29T02:49:57;5.57;;;1.98;;
5827;SDS011;42583;50.240;8.444;2023-12-29T03:04:58;5.03;;;2.50;;
5827;SDS011;42583;50.240;8.444;2023-12-29T03:19:58;5.45;;;2.42;;
5827;SDS011;42583;50.240;8.444;2023-12-29T03:34:59;5.15;;;2.25;;
5827;SDS011;42583;50.240;8.444;2023-12-29T03:50:00;4.90;;;2.50;;
5827;SDS011;42583;50.240;8.444;2023-12-29T04:05:01;6.55;;;2.90;;
5827;SDS011;42583;50.240;8.444;2023-12-29T04:20:01;7.93;;;2.90;;
5827;SDS011;42583;50.240;8.444;2023-12-29T04:35:02;7.40;;;2.45;;
5827;SDS011;42583;50.240;8.444;2023-12-29T04:50:03;6.28;;;2.80;;
5827;SDS011;42583;50.240;8.444;2023-12-29T05:05:05;6.40;;;2.63;;
5827;SDS011;42583;50.240;8.444;2023-12-29T05:20:06;6.50;;;2.90;;
5827;SDS011;42583;50.240;8.444;2023-12-29T05:35:07;6.75;;;2.97;;
5827;SDS011;42583;50.240;8.444;2023-12-29T05:50:08;5.93;;;2.42;;
5827;SDS011;42583;50.240;8.444;2023-12-29T06:05:12;7.15;;;2.00;;
5827;SDS011;42583;50.240;8.444;2023-12-29T06:20:13;5.78;;;2.40;;
5827;SDS011;42583;50.240;8.444;2023-12-29T06:35:13;4.30;;;2.35;;
5827;SDS011;42583;50.240;8.444;2023-12-29T06:50:14;8.93;;;2.80;;
5827;SDS011;42583;50.240;8.444;2023-12-29T07:05:14;6.75;;;2.85;;
5827;SDS011;42583;50.240;8.444;2023-12-29T07:20:17;7.10;;;2.85;;
5827;SDS011;42583;50.240;8.444;2023-12-29T07:35:17;7.00;;;3.17;;
5827;SDS011;42583;50.240;8.444;2023-12-29T07:50:19;5.53;;;3.13;;
5827;SDS011;42583;50.240;8.444;2023-12-29T08:05:20;8.38;;;2.38;;
5827;SDS011;42583;50.240;8.444;2023-12-29T08:20:21;9.05;;;3.47;;
5827;SDS011;42583;50.240;8.444;2023-12-29T08:35:22;7.40;;;4.18;;
5827;SDS011;42583;50.240;8.444;2023-12-29T08:50:23;6.88;;;2.55;;
5827;SDS011;42583;50.240;8.444;2023-12-29T09:05:23;11.20;;;3.03;;
5827;SDS011;42583;50.240;8.444;2023-12-29T09:20:24;6.03;;;2.63;;
5827;SDS011;42583;50.240;8.444;2023-12-29T09:35:24;4.40;;;2.20;;
5827;SDS011;42583;50.240;8.444;2023-12-29T09:50:25;5.40;;;2.42;;
5827;SDS011;42583;50.240;8.444;2023-12-29T10:05:27;6.88;;;2.40;;
5827;SDS011;42583;50.240;8.444;2023-12-29T10:35:28;6.90;;;2.15;;
5827;SDS011;42583;50.240;8.444;2023-12-29T10:50:29;4.43;;;2.00;;
5827;SDS011;42583;50.240;8.444;2023-12-29T11:05:29;3.80;;;2.30;;
5827;SDS011;42583;50.240;8.444;2023-12-29T11:20:30;2.97;;;1.90;;
5827;SDS011;42583;50.240;8.444;2023-12-29T11:35:43;4.22;;;1.67;;
5827;SDS011;42583;50.240;8.444;2023-12-29T11:50:48;2.92;;;1.70;;
5827;SDS011;42583;50.240;8.444;2023-12-29T12:05:49;33.15;;;2.45;;
5827;SDS011;42583;50.240;8.444;2023-12-29T12:20:50;3.60;;;1.85;;
5827;SDS011;42583;50.240;8.444;2023-12-29T12:35:58;3.17;;;1.67;;
5827;SDS011;42583;50.240;8.444;2023-12-29T12:51:00;5.88;;;1.52;;
5827;SDS011;42583;50.240;8.444;2023-12-29T13:06:00;2.30;;;1.23;;
5827;SDS011;42583;50.240;8.444;2023-12-29T13:21:01;3.05;;;1.20;;
5827;SDS011;42583;50.240;8.444;2023-12-29T13:36:08;1.27;;;1.10;;
5827;SDS011;42583;50.240;8.444;2023-12-29T13:51:17;2.65;;;1.50;;
5827;SDS011;42583;50.240;8.444;2023-12-29T14:06:32;1.92;;;1.50;;
5827;SDS011;42583;50.240;8.444;2023-12-29T14:21:38;1.75;;;1.50;;
5827;SDS011;42583;50.240;8.444;2023-12-29T14:36:41;2.88;;;1.52;;
5827;SDS011;42583;50.240;8.444;2023-12-29T14:51:42;3.78;;;1.35;;
5827;SDS011;42583;50.240;8.444;2023-12-29T15:06:42;2.78;;;1.45;;
5827;SDS011;42583;50.240;8.444;2023-12-29T15:21:43;4.38;;;1.50;;
5827;SDS011;42583;50.240;8.444;2023-12-29T15:36:43;3.38;;;1.90;;
5827;SDS011;42583;50.240;8.444;2023-12-29T15:51:44;4.57;;;1.95;;
5827;SDS011;42583;50.240;8.444;2023-12-29T16:06:44;72.68;;;4.45;;
5827;SDS011;42583;50.240;8.444;2023-12-29T16:21:45;77.00;;;4.10;;
5827;SDS011;42583;50.240;8.444;2023-12-29T16:36:55;62.47;;;3.33;;
5827;SDS011;42583;50.240;8.444;2023-12-29T16:51:57;550.92;;;13.07;;
5827;SDS011;42583;50.240;8.444;2023-12-29T17:06:58;420.75;;;11.93;;
5827;SDS011;42583;50.240;8.444;2023-12-29T17:21:58;294.38;;;8.27;;
5827;SDS011;42583;50.240;8.444;2023-12-29T17:37:00;13.48;;;3.80;;
5827;SDS011;42583;50.240;8.444;2023-12-29T17:52:01;7.80;;;3.40;;
5827;SDS011;42583;50.240;8.444;2023-12-29T18:07:01;12.82;;;3.17;;
5827;SDS011;42583;50.240;8.444;2023-12-29T18:22:02;14.85;;;4.03;;
5827;SDS011;42583;50.240;8.444;2023-12-29T18:37:02;5.93;;;2.95;;
5827;SDS011;42583;50.240;8.444;2023-12-29T18:52:04;7.20;;;2.95;;
5827;SDS011;42583;50.240;8.444;2023-12-29T19:07:05;6.85;;;3.00;;
5827;SDS011;42583;50.240;8.444;2023-12-29T19:22:05;8.77;;;2.60;;
5827;SDS011;42583;50.240;8.444;2023-12-29T19:37:06;13.02;;;2.40;;
5827;SDS011;42583;50.240;8.444;2023-12-29T19:52:07;27.63;;;2.92;;
5827;SDS011;42583;50.240;8.444;2023-12-29T20:07:09;218.32;;;6.40;;
5827;SDS011;42583;50.240;8.444;2023-12-29T20:22:09;248.63;;;6.43;;
5827;SDS011;42583;50.240;8.444;2023-12-29T20:37:11;428.70;;;10.15;;
5827;SDS011;42583;50.240;8.444;2023-12-29T20:52:11;71.68;;;3.70;;
5827;SDS011;42583;50.240;8.444;2023-12-29T21:07:12;168.48;;;3.95;;
5827;SDS011;42583;50.240;8.444;2023-12-29T21:22:12;252.80;;;5.30;;
5827;SDS011;42583;50.240;8.444;2023-12-29T21:37:13;214.07;;;6.85;;
5827;SDS011;42583;50.240;8.444;2023-12-29T21:52:13;6.40;;;2.90;;
5827;SDS011;42583;50.240;8.444;2023-12-29T22:07:14;24.80;;;3.05;;
5827;SDS011;42583;50.240;8.444;2023-12-29T22:22:14;24.25;;;3.20;;
5827;SDS011;42583;50.240;8.444;2023-12-29T22:37:15;14.43;;;2.80;;
5827;SDS011;42583;50.240;8.444;2023-12-29T22:52:15;5.18;;;2.00;;
5827;SDS011;42583;50.240;8.444;2023-12-29T23:07:16;3.40;;;1.88;;
5827;SDS011;42583;50.240;8.444;2023-12-29T23:22:17;3.97;;;1.90;;
5827;SDS011;42583;50.240;8.444;2023-12-29T23:37:18;2.85;;;1.40;;
5827;SDS011;42583;50.240;8.444;2023-12-29T23:52:18;78.50;;;2.65;;
